Time;durP1;ratioP1;P1;durP2;ratioP2;P2;SDS_P1;SDS_P2;PMS_P1;PMS_P2;Temp;Humidity;BMP_temperature;BMP_pressure;BME280_temperature;BME280_humidity;BME280_pressure;Samples;Min_cycle;Max_cycle;Signal;HPM_P1;HPM_P2
2022/02/07 00:01:07;;;;;;;0.28;0.28;;;1.30;99.90;;;;;;5068431;28;20209;-82
2022/02/07 00:03:41;;;;;;;0.20;0.20;;;1.20;99.90;;;;;;5066127;28;20296;-82
2022/02/07 00:06:08;;;;;;;0.20;0.20;;;1.10;99.90;;;;;;5064737;28;20649;-83
2022/02/07 00:08:35;;;;;;;0.20;0.20;;;1.10;99.90;;;;;;5062545;28;20198;-83
2022/02/07 00:11:04;;;;;;;0.20;0.20;;;1.10;99.90;;;;;;5067170;28;20252;-82
2022/02/07 00:13:30;;;;;;;0.20;0.20;;;1.10;99.90;;;;;;5068257;28;20224;-84
2022/02/07 00:15:57;;;;;;;0.20;0.20;;;1.20;99.90;;;;;;5053544;28;20697;-83
2022/02/07 00:18:24;;;;;;;0.30;0.30;;;1.30;99.90;;;;;;5053546;28;20206;-84
2022/02/07 00:20:51;;;;;;;0.20;0.20;;;1.30;99.90;;;;;;5090287;22;20222;-84
2022/02/07 00:23:18;;;;;;;0.20;0.20;;;1.30;99.90;;;;;;5054981;28;20224;-84
2022/02/07 00:25:44;;;;;;;0.30;0.30;;;1.30;99.90;;;;;;5049285;28;20202;-83
2022/02/07 00:28:20;;;;;;;0.20;0.20;;;1.30;99.90;;;;;;5044813;28;20199;-84
2022/02/07 00:30:52;;;;;;;0.30;0.30;;;1.30;99.90;;;;;;5046064;28;20217;-84
2022/02/07 00:33:25;;;;;;;0.20;0.20;;;1.30;99.90;;;;;;5044504;28;20462;-84
2022/02/07 00:35:52;;;;;;;0.20;0.20;;;1.30;99.90;;;;;;5050961;28;20678;-84
2022/02/07 00:41:55;;;;;;;0.20;0.20;;;1.40;99.90;;;;;;5026071;28;20623;-84
2022/02/07 01:19:54;;;;;;;0.20;0.20;;;1.70;99.90;;;;;;4864746;29;20221;-81
2022/02/07 01:53:10;;;;;;;0.30;0.30;;;1.90;99.90;;;;;;5046629;28;20195;-81
2022/02/07 01:55:39;;;;;;;0.30;0.30;;;1.90;99.90;;;;;;5065649;28;20298;-81
2022/02/07 01:58:07;;;;;;;0.30;0.30;;;2.00;99.90;;;;;;5065707;28;20203;-81
2022/02/07 02:00:34;;;;;;;0.20;0.20;;;2.00;99.90;;;;;;5063639;28;20233;-81
2022/02/07 02:03:03;;;;;;;0.20;0.20;;;2.10;99.90;;;;;;5064331;28;20227;-81
2022/02/07 02:05:36;;;;;;;0.22;0.22;;;2.10;99.90;;;;;;5064776;28;20212;-81
2022/02/07 02:08:04;;;;;;;0.30;0.30;;;2.20;99.90;;;;;;5064396;28;20201;-81
2022/02/07 02:10:31;;;;;;;0.30;0.30;;;2.30;99.90;;;;;;5063937;28;20238;-81
2022/02/07 02:13:04;;;;;;;0.20;0.20;;;2.40;99.90;;;;;;5064311;28;20385;-81
2022/02/07 02:15:38;;;;;;;0.20;0.20;;;2.40;99.90;;;;;;5063342;28;20198;-81
2022/02/07 02:37:43;;;;;;;0.20;0.20;;;2.40;99.90;;;;;;5002841;28;20285;-81
2022/02/07 02:45:43;;;;;;;0.30;0.30;;;2.40;99.90;;;;;;5065875;28;20186;-81
2022/02/07 02:48:17;;;;;;;0.30;0.30;;;2.40;99.90;;;;;;5065352;28;20206;-81
2022/02/07 02:50:44;;;;;;;0.20;0.20;;;2.40;99.90;;;;;;5064162;28;20251;-81
2022/02/07 02:53:13;;;;;;;0.20;0.20;;;2.30;99.90;;;;;;5063558;28;20206;-81
2022/02/07 02:55:43;;;;;;;0.20;0.20;;;2.40;99.90;;;;;;5063028;28;20218;-81
2022/02/07 02:58:12;;;;;;;0.20;0.20;;;2.50;99.90;;;;;;5063127;28;20566;-81
2022/02/07 03:00:40;;;;;;;0.28;0.28;;;2.40;99.90;;;;;;5062074;28;20227;-81
2022/02/07 03:03:07;;;;;;;0.20;0.20;;;2.50;99.90;;;;;;5062421;28;20227;-81
2022/02/07 03:05:34;;;;;;;0.20;0.20;;;2.50;99.90;;;;;;5062886;28;20215;-81
2022/02/07 03:08:01;;;;;;;0.30;0.30;;;2.50;99.90;;;;;;5062123;28;20210;-80
2022/02/07 03:10:31;;;;;;;0.20;0.20;;;2.50;99.90;;;;;;5062114;28;20231;-81
2022/02/07 03:13:11;;;;;;;0.22;0.22;;;2.40;99.90;;;;;;5063116;28;20183;-81
2022/02/07 03:18:23;;;;;;;0.20;0.20;;;2.40;99.90;;;;;;5061901;28;20206;-81
2022/02/07 03:20:50;;;;;;;0.20;0.20;;;2.50;99.90;;;;;;5061403;28;20235;-81
2022/02/07 03:23:16;;;;;;;0.30;0.30;;;2.50;99.90;;;;;;5062526;28;20229;-81
2022/02/07 03:25:43;;;;;;;0.20;0.20;;;2.50;99.90;;;;;;5062933;28;20213;-81
2022/02/07 03:28:12;;;;;;;0.20;0.20;;;2.40;99.90;;;;;;5061406;28;20571;-81
2022/02/07 03:30:38;;;;;;;0.30;0.30;;;2.40;99.90;;;;;;5061897;28;20227;-81
2022/02/07 03:33:06;;;;;;;0.20;0.20;;;2.40;99.90;;;;;;5060962;28;20209;-81
2022/02/07 03:35:33;;;;;;;0.20;0.20;;;2.40;99.90;;;;;;5061398;28;20206;-81
2022/02/07 03:38:00;;;;;;;0.30;0.30;;;2.40;99.90;;;;;;5061562;28;20212;-81
2022/02/07 03:40:27;;;;;;;0.20;0.20;;;2.40;99.90;;;;;;5062358;28;20227;-81
2022/02/07 03:42:54;;;;;;;0.20;0.20;;;2.40;99.90;;;;;;5062632;28;20312;-81
2022/02/07 03:45:22;;;;;;;0.20;0.20;;;2.50;99.90;;;;;;5062282;28;20210;-81
2022/02/07 03:47:49;;;;;;;0.20;0.20;;;2.50;99.90;;;;;;5061825;28;20210;-81
2022/02/07 03:50:16;;;;;;;0.20;0.20;;;2.50;99.90;;;;;;5061160;28;20237;-81
2022/02/07 03:52:43;;;;;;;0.20;0.20;;;2.50;99.90;;;;;;5063251;28;20207;-82
2022/02/07 03:55:09;;;;;;;0.20;0.20;;;2.50;99.90;;;;;;5058473;28;20215;-82
2022/02/07 03:57:36;;;;;;;0.45;0.45;;;1.60;99.90;;;;;;5043881;28;20199;-82
2022/02/07 04:00:05;;;;;;;0.20;0.20;;;1.20;99.90;;;;;;5060223;28;20198;-83
2022/02/07 04:02:37;;;;;;;0.20;0.20;;;1.10;99.90;;;;;;5061745;28;20233;-82
2022/02/07 04:05:26;;;;;;;0.20;0.20;;;1.00;99.90;;;;;;5049585;28;20199;-82
2022/02/07 04:07:52;;;;;;;0.30;0.30;;;0.90;99.90;;;;;;5041393;28;20262;-82
2022/02/07 04:10:20;;;;;;;0.40;0.40;;;0.80;99.90;;;;;;5057609;28;20714;-82
2022/02/07 04:12:53;;;;;;;0.20;0.20;;;0.80;99.90;;;;;;5061551;28;20206;-82
2022/02/07 04:15:20;;;;;;;0.20;0.20;;;0.80;99.90;;;;;;5061152;28;20194;-82
2022/02/07 04:17:54;;;;;;;0.20;0.20;;;0.80;99.90;;;;;;5061043;28;20296;-82
2022/02/07 04:20:21;;;;;;;0.20;0.20;;;0.80;99.90;;;;;;5059928;28;20233;-81
2022/02/07 04:22:48;;;;;;;0.30;0.30;;;0.90;99.90;;;;;;5060684;28;20628;-81
2022/02/07 04:25:15;;;;;;;0.30;0.30;;;0.90;99.90;;;;;;5059868;28;20206;-81
2022/02/07 04:27:42;;;;;;;0.20;0.20;;;0.90;99.90;;;;;;5060719;28;20212;-81
2022/02/07 04:30:10;;;;;;;0.30;0.30;;;0.90;99.90;;;;;;5060445;28;20210;-82
2022/02/07 04:32:37;;;;;;;0.30;0.30;;;0.90;99.90;;;;;;5060382;28;20207;-82
2022/02/07 04:35:07;;;;;;;0.20;0.20;;;1.00;99.90;;;;;;5061378;28;20213;-81
2022/02/07 04:37:34;;;;;;;0.30;0.30;;;0.90;99.90;;;;;;5060492;28;20201;-82
2022/02/07 04:40:00;;;;;;;0.30;0.30;;;1.00;99.90;;;;;;5060983;28;20220;-81
2022/02/07 04:42:28;;;;;;;0.30;0.30;;;1.00;99.90;;;;;;5061456;28;20412;-82
2022/02/07 04:45:10;;;;;;;0.30;0.30;;;1.00;99.90;;;;;;5061100;28;20229;-82
2022/02/07 04:47:54;;;;;;;0.30;0.30;;;1.00;99.90;;;;;;5061335;28;20191;-81
2022/02/07 04:50:32;;;;;;;0.30;0.30;;;1.00;99.90;;;;;;5060238;28;20225;-82
2022/02/07 04:53:14;;;;;;;0.30;0.30;;;1.00;99.90;;;;;;5060744;28;20190;-82
2022/02/07 04:55:45;;;;;;;0.20;0.20;;;1.00;99.90;;;;;;5061225;28;20248;-81
2022/02/07 04:58:26;;;;;;;0.20;0.20;;;1.00;99.90;;;;;;5061148;28;20201;-81
2022/02/07 05:01:05;;;;;;;0.20;0.20;;;1.10;99.90;;;;;;5060428;28;20252;-82
2022/02/07 05:03:37;;;;;;;0.20;0.20;;;1.00;99.90;;;;;;5061100;28;20646;-81
2022/02/07 05:14:18;;;;;;;0.30;0.30;;;1.00;99.90;;;;;;5063464;28;20256;-82
2022/02/07 05:16:47;;;;;;;0.20;0.20;;;1.00;99.90;;;;;;5064719;28;20244;-82
2022/02/07 05:19:14;;;;;;;0.20;0.20;;;1.00;99.90;;;;;;5065114;28;20210;-82
2022/02/07 05:21:42;;;;;;;0.20;0.20;;;1.00;99.90;;;;;;5065391;28;20247;-82
2022/02/07 05:24:08;;;;;;;0.30;0.30;;;1.00;99.90;;;;;;5065869;28;20234;-82
2022/02/07 05:26:35;;;;;;;0.20;0.20;;;1.00;99.90;;;;;;5066525;28;20210;-82
2022/02/07 05:29:04;;;;;;;0.20;0.20;;;1.00;99.90;;;;;;5065968;28;20225;-82
2022/02/07 05:31:30;;;;;;;0.30;0.30;;;1.00;99.90;;;;;;5065684;28;20576;-82
2022/02/07 05:33:57;;;;;;;0.20;0.20;;;1.00;99.90;;;;;;5065923;28;20200;-82
2022/02/07 05:36:24;;;;;;;0.30;0.30;;;1.00;99.90;;;;;;5066367;28;20205;-82
2022/02/07 05:38:56;;;;;;;0.25;0.25;;;1.00;99.90;;;;;;5066495;28;20205;-82
2022/02/07 05:41:23;;;;;;;0.20;0.20;;;1.10;99.90;;;;;;5067004;28;20236;-82
2022/02/07 05:43:51;;;;;;;0.20;0.20;;;1.10;99.90;;;;;;5066772;28;20228;-83
2022/02/07 05:46:20;;;;;;;0.30;0.30;;;1.10;99.90;;;;;;5066826;28;20228;-82
2022/02/07 05:48:47;;;;;;;0.20;0.20;;;1.20;99.90;;;;;;5067009;28;20622;-82
2022/02/07 05:51:13;;;;;;;0.20;0.20;;;1.20;99.90;;;;;;5066843;28;20221;-82
2022/02/07 05:53:40;;;;;;;0.20;0.20;;;1.20;99.90;;;;;;5066368;28;20565;-82
2022/02/07 05:56:08;;;;;;;0.20;0.20;;;1.20;99.90;;;;;;5065747;28;20212;-83
2022/02/07 05:58:35;;;;;;;0.20;0.20;;;1.20;99.90;;;;;;5066917;28;20205;-83
2022/02/07 06:01:02;;;;;;;0.30;0.30;;;1.20;99.90;;;;;;5066931;28;20225;-82
2022/02/07 06:03:29;;;;;;;0.30;0.30;;;1.30;99.90;;;;;;5071182;28;20225;-82
2022/02/07 06:05:56;;;;;;;0.30;0.30;;;1.30;99.90;;;;;;5076115;28;20216;-82
2022/02/07 06:08:22;;;;;;;0.30;0.30;;;1.30;99.90;;;;;;5073791;28;20235;-81
2022/02/07 06:10:50;;;;;;;0.30;0.30;;;1.30;99.90;;;;;;5072223;28;20221;-82
2022/02/07 06:13:19;;;;;;;0.20;0.20;;;1.30;99.90;;;;;;5066513;28;20233;-83
2022/02/07 06:15:46;;;;;;;0.20;0.20;;;1.30;99.90;;;;;;5068383;28;20206;-83
2022/02/07 06:18:15;;;;;;;0.20;0.20;;;1.40;99.90;;;;;;5074011;28;20206;-82
2022/02/07 06:20:42;;;;;;;0.20;0.20;;;1.30;99.90;;;;;;5095327;22;20240;-81
2022/02/07 06:23:09;;;;;;;0.20;0.20;;;1.40;99.90;;;;;;5057916;28;20206;-81
2022/02/07 06:25:36;;;;;;;0.30;0.30;;;1.40;99.90;;;;;;5057913;28;20604;-81
2022/02/07 06:28:03;;;;;;;0.20;0.20;;;1.40;99.90;;;;;;5059278;28;20209;-82
2022/02/07 06:30:31;;;;;;;0.20;0.20;;;1.40;99.90;;;;;;5059163;28;20210;-81
2022/02/07 06:32:58;;;;;;;0.40;0.40;;;1.50;99.90;;;;;;5058328;28;20194;-82
2022/02/07 06:35:25;;;;;;;0.20;0.20;;;1.50;99.90;;;;;;5058391;28;20210;-81
2022/02/07 06:37:51;;;;;;;0.20;0.20;;;1.60;99.90;;;;;;5056566;28;20208;-82
2022/02/07 06:40:18;;;;;;;0.30;0.30;;;1.60;99.90;;;;;;5056770;28;20210;-83
2022/02/07 06:42:45;;;;;;;0.20;0.20;;;1.60;99.90;;;;;;5056384;28;20219;-82
2022/02/07 06:45:12;;;;;;;0.20;0.20;;;1.60;99.90;;;;;;5055276;28;20221;-83
2022/02/07 06:47:40;;;;;;;0.20;0.20;;;1.60;99.90;;;;;;5055620;28;20206;-83
2022/02/07 06:50:07;;;;;;;0.30;0.30;;;1.60;99.90;;;;;;5055314;28;20689;-79
2022/02/07 06:52:33;;;;;;;0.20;0.20;;;1.70;99.90;;;;;;5055018;28;20223;-82
2022/02/07 06:55:00;;;;;;;0.20;0.20;;;1.70;99.90;;;;;;5056246;28;20203;-82
2022/02/07 06:57:27;;;;;;;0.30;0.30;;;1.70;99.90;;;;;;5055274;28;20206;-82
2022/02/07 06:59:54;;;;;;;0.30;0.30;;;1.70;99.90;;;;;;5055623;28;20567;-82
2022/02/07 07:02:26;;;;;;;0.30;0.30;;;1.60;99.90;;;;;;5055494;28;20230;-81
2022/02/07 07:04:56;;;;;;;0.30;0.30;;;1.60;99.90;;;;;;5059942;28;20220;-84
2022/02/07 07:07:24;;;;;;;0.30;0.30;;;1.60;99.90;;;;;;5056800;28;20206;-83
2022/02/07 07:09:51;;;;;;;0.40;0.40;;;1.70;99.90;;;;;;5063186;28;20208;-82
2022/02/07 07:12:19;;;;;;;0.20;0.20;;;1.70;99.90;;;;;;5058097;28;20696;-82
2022/02/07 07:14:48;;;;;;;0.20;0.20;;;1.80;99.90;;;;;;5063037;28;20206;-81
2022/02/07 07:17:15;;;;;;;0.32;0.32;;;1.70;99.90;;;;;;5058449;28;20282;-83
2022/02/07 07:19:42;;;;;;;0.30;0.30;;;1.70;99.90;;;;;;5057539;28;20207;-83
2022/02/07 07:22:10;;;;;;;0.30;0.30;;;1.70;99.90;;;;;;5057776;28;20256;-83
2022/02/07 07:24:38;;;;;;;0.30;0.30;;;1.60;99.90;;;;;;5059476;28;20684;-83
2022/02/07 07:27:06;;;;;;;0.30;0.30;;;1.70;99.90;;;;;;5059811;28;20305;-82
2022/02/07 07:29:37;;;;;;;0.20;0.20;;;1.60;99.90;;;;;;5059969;28;20618;-82
2022/02/07 07:32:06;;;;;;;0.32;0.32;;;1.70;99.90;;;;;;5061598;28;20261;-80
2022/02/07 07:34:33;;;;;;;0.20;0.20;;;1.70;99.90;;;;;;5061938;28;20267;-82
2022/02/07 07:37:00;;;;;;;0.30;0.30;;;1.70;99.90;;;;;;5062360;28;20293;-82
2022/02/07 07:39:29;;;;;;;0.30;0.30;;;1.70;99.90;;;;;;5061969;28;20208;-82
2022/02/07 07:41:57;;;;;;;0.20;0.20;;;1.70;99.90;;;;;;5063116;28;20223;-82
2022/02/07 07:44:29;;;;;;;0.22;0.22;;;1.70;99.90;;;;;;5062235;28;20223;-82
2022/02/07 07:46:57;;;;;;;0.20;0.20;;;1.80;99.90;;;;;;5061896;28;20209;-82
2022/02/07 07:49:34;;;;;;;0.30;0.30;;;1.70;99.90;;;;;;5061966;28;20213;-82
2022/02/07 07:52:07;;;;;;;0.20;0.20;;;1.80;99.90;;;;;;5062798;28;20252;-83
2022/02/07 07:54:51;;;;;;;0.30;0.30;;;1.80;99.90;;;;;;5062850;28;20308;-82
2022/02/07 08:02:51;;;;;;;0.30;0.30;;;1.90;99.90;;;;;;5060152;28;20300;-81
2022/02/07 08:05:26;;;;;;;0.30;0.30;;;1.90;99.90;;;;;;5041684;28;20318;-80
2022/02/07 08:07:56;;;;;;;0.30;0.30;;;1.80;99.90;;;;;;5051270;28;20207;-79
2022/02/07 08:10:42;;;;;;;0.30;0.30;;;1.90;99.90;;;;;;5054787;28;20198;-79
2022/02/07 08:13:15;;;;;;;0.30;0.30;;;1.80;99.90;;;;;;5050971;28;20289;-78
2022/02/07 08:15:42;;;;;;;0.28;0.28;;;1.90;99.90;;;;;;5050202;28;20250;-80
2022/02/07 08:18:09;;;;;;;0.30;0.30;;;1.90;99.90;;;;;;5048638;28;20257;-79
2022/02/07 08:20:36;;;;;;;0.20;0.20;;;2.00;99.90;;;;;;5046692;28;20202;-80
2022/02/07 08:23:04;;;;;;;0.20;0.20;;;2.00;99.90;;;;;;5047127;28;20197;-79
2022/02/07 08:25:32;;;;;;;0.28;0.28;;;2.00;99.90;;;;;;5046588;28;20234;-80
2022/02/07 08:27:59;;;;;;;0.30;0.30;;;2.00;99.90;;;;;;5056735;28;20209;-79
2022/02/07 08:30:26;;;;;;;0.20;0.20;;;2.10;99.90;;;;;;5058297;28;20203;-80
2022/02/07 08:32:54;;;;;;;0.30;0.30;;;2.10;99.90;;;;;;5057987;28;20202;-80
2022/02/07 08:35:20;;;;;;;0.20;0.20;;;2.20;99.90;;;;;;5055731;28;20746;-80
2022/02/07 08:37:49;;;;;;;0.20;0.20;;;2.20;99.90;;;;;;5060507;28;20496;-80
2022/02/07 08:40:16;;;;;;;0.20;0.20;;;2.20;99.90;;;;;;5059612;28;20214;-80
2022/02/07 08:42:44;;;;;;;0.20;0.20;;;2.40;99.90;;;;;;5058545;28;20203;-79
2022/02/07 08:45:12;;;;;;;2.58;1.58;;;2.40;99.90;;;;;;5059748;28;20245;-80
2022/02/07 08:47:39;;;;;;;12.10;1.45;;;2.40;99.90;;;;;;5060513;28;20219;-79
2022/02/07 08:50:07;;;;;;;0.45;0.45;;;2.40;99.90;;;;;;5057603;28;20217;-80
2022/02/07 08:52:34;;;;;;;1.10;1.00;;;2.50;99.90;;;;;;5057853;28;20602;-78
2022/02/07 08:55:03;;;;;;;4.00;2.50;;;2.60;99.90;;;;;;5059111;28;20211;-80
2022/02/07 08:57:35;;;;;;;5.95;1.45;;;2.60;99.90;;;;;;5059264;28;20209;-80
2022/02/07 09:00:15;;;;;;;1.33;1.20;;;2.60;99.90;;;;;;5059863;28;20214;-79
2022/02/07 09:05:44;;;;;;;1.05;0.93;;;2.90;99.90;;;;;;5047192;28;20245;-79
2022/02/07 09:08:24;;;;;;;0.60;0.60;;;2.90;99.90;;;;;;5052187;28;20217;-78
2022/02/07 09:10:52;;;;;;;1.30;0.95;;;3.00;99.90;;;;;;5057877;28;20318;-80
2022/02/07 09:13:20;;;;;;;2.05;1.95;;;3.10;99.90;;;;;;5057511;28;20207;-80
2022/02/07 09:16:02;;;;;;;4.13;1.73;;;3.20;99.90;;;;;;5057214;28;20242;-80
2022/02/07 09:18:29;;;;;;;13.10;2.03;;;3.30;99.90;;;;;;5055499;28;20201;-80
2022/02/07 09:20:58;;;;;;;4.97;1.40;;;3.40;99.90;;;;;;5055073;28;20236;-79
2022/02/07 09:23:26;;;;;;;2.38;1.30;;;3.30;99.90;;;;;;5056284;28;20233;-78
2022/02/07 09:25:52;;;;;;;4.88;1.52;;;3.40;99.90;;;;;;5062361;28;20242;-79
2022/02/07 09:28:19;;;;;;;0.52;0.52;;;3.30;99.90;;;;;;5063363;28;20199;-78
2022/02/07 09:30:48;;;;;;;1.17;0.75;;;3.20;99.90;;;;;;5063550;28;20223;-78
2022/02/07 09:33:15;;;;;;;1.38;1.27;;;3.10;99.90;;;;;;5062390;28;20209;-78
2022/02/07 09:35:42;;;;;;;2.53;1.35;;;3.10;99.90;;;;;;5061940;28;20276;-80
2022/02/07 09:38:09;;;;;;;1.15;0.93;;;3.10;99.90;;;;;;5062659;28;20264;-78
2022/02/07 09:40:36;;;;;;;1.48;0.93;;;3.00;99.90;;;;;;5058025;28;20269;-80
2022/02/07 09:43:05;;;;;;;0.95;0.95;;;3.00;99.90;;;;;;5057271;28;20206;-79
2022/02/07 09:45:36;;;;;;;3.10;1.90;;;3.10;99.90;;;;;;5056177;28;20257;-80
2022/02/07 09:48:06;;;;;;;2.38;1.90;;;3.10;99.90;;;;;;5057215;28;20246;-81
2022/02/07 09:50:34;;;;;;;3.63;1.48;;;3.20;99.90;;;;;;5057754;28;20210;-81
2022/02/07 09:53:01;;;;;;;3.00;2.25;;;3.20;99.90;;;;;;5058291;28;20203;-79
2022/02/07 09:55:28;;;;;;;0.70;0.70;;;3.20;99.90;;;;;;5057435;28;20206;-80
2022/02/07 09:57:55;;;;;;;2.80;1.25;;;3.20;99.90;;;;;;5057413;28;20203;-81
2022/02/07 10:00:29;;;;;;;1.83;1.63;;;3.20;99.90;;;;;;5057804;28;20207;-80
2022/02/07 10:03:08;;;;;;;11.00;2.03;;;3.20;99.90;;;;;;5059608;28;20215;-79
2022/02/07 10:05:47;;;;;;;8.70;1.77;;;3.30;99.90;;;;;;5057082;28;20269;-80
2022/02/07 10:08:20;;;;;;;7.65;2.10;;;3.30;99.90;;;;;;5056716;28;20221;-80
2022/02/07 10:11:05;;;;;;;1.65;1.50;;;3.40;99.90;;;;;;5056821;28;20294;-81
2022/02/07 10:13:43;;;;;;;1.05;1.05;;;3.30;99.90;;;;;;5037772;28;20218;-78
2022/02/07 10:16:29;;;;;;;1.02;0.90;;;3.20;99.90;;;;;;5038156;28;20201;-80
2022/02/07 10:19:17;;;;;;;7.55;2.72;;;3.20;99.90;;;;;;5057188;28;20300;-79
2022/02/07 10:36:09;;;;;;;2.53;1.65;;;3.40;99.90;;;;;;5060546;28;20660;-81
2022/02/07 10:38:55;;;;;;;2.67;1.73;;;3.50;99.90;;;;;;5059401;28;20206;-81
2022/02/07 10:41:42;;;;;;;3.67;2.30;;;3.80;99.90;;;;;;5058467;28;20271;-81
2022/02/07 10:44:34;;;;;;;1.00;1.00;;;4.00;99.90;;;;;;5039545;28;20694;-81
2022/02/07 10:47:08;;;;;;;3.00;1.92;;;4.20;99.90;;;;;;5044628;28;20209;-80
2022/02/07 10:49:35;;;;;;;4.00;1.40;;;4.20;99.90;;;;;;5058697;28;20202;-80
2022/02/07 10:52:02;;;;;;;1.50;1.35;;;4.30;99.90;;;;;;5058397;28;20315;-81
2022/02/07 10:54:31;;;;;;;2.80;1.70;;;4.20;99.90;;;;;;5059996;28;20690;-80
2022/02/07 10:56:58;;;;;;;0.50;0.50;;;4.10;99.90;;;;;;5056627;28;20192;-79
2022/02/07 10:59:27;;;;;;;3.45;3.22;;;4.00;99.90;;;;;;5055817;28;20588;-81
2022/02/07 11:04:57;;;;;;;4.28;1.52;;;3.90;99.90;;;;;;5059612;28;20201;-80
2022/02/07 11:07:27;;;;;;;2.90;1.90;;;3.80;99.90;;;;;;5062473;28;20198;-81
2022/02/07 11:10:08;;;;;;;4.20;2.45;;;3.90;99.90;;;;;;5058681;28;20209;-81
2022/02/07 11:13:07;;;;;;;3.78;1.10;;;4.20;99.90;;;;;;5058009;28;20228;-80
2022/02/07 11:15:37;;;;;;;1.95;1.38;;;5.00;99.90;;;;;;5058244;28;20229;-79
2022/02/07 11:18:29;;;;;;;1.00;0.90;;;5.10;99.90;;;;;;5048446;28;20838;-84
2022/02/07 11:21:13;;;;;;;3.00;1.30;;;4.80;99.90;;;;;;5047787;28;20311;-80
2022/02/07 11:23:50;;;;;;;3.10;2.30;;;4.70;99.90;;;;;;5048316;28;20216;-79
2022/02/07 11:26:37;;;;;;;3.53;1.00;;;4.30;99.90;;;;;;5050730;28;20229;-81
2022/02/07 11:29:04;;;;;;;2.35;1.40;;;4.20;99.90;;;;;;5054997;28;20624;-79
2022/02/07 11:31:34;;;;;;;3.45;1.80;;;4.20;99.90;;;;;;5060996;28;20247;-81
2022/02/07 11:34:11;;;;;;;1.88;1.00;;;4.10;99.90;;;;;;5061150;28;20277;-81
2022/02/07 11:36:39;;;;;;;2.35;1.27;;;4.00;99.90;;;;;;5061272;28;20205;-81
2022/02/07 11:39:11;;;;;;;4.43;1.40;;;3.90;99.90;;;;;;5061771;28;20624;-79
2022/02/07 11:42:09;;;;;;;2.17;1.48;;;3.90;99.90;;;;;;5060756;28;20228;-81
2022/02/07 11:45:24;;;;;;;4.30;1.10;;;3.90;99.90;;;;;;5060520;28;20638;-81
2022/02/07 11:47:57;;;;;;;2.05;1.25;;;3.90;99.90;;;;;;5061357;28;20275;-81
2022/02/07 11:50:24;;;;;;;4.15;2.65;;;3.90;99.90;;;;;;5060402;28;20208;-81
2022/02/07 11:52:54;;;;;;;1.60;1.50;;;3.90;99.90;;;;;;5060842;28;20297;-81
2022/02/07 11:55:25;;;;;;;1.40;1.20;;;3.90;99.90;;;;;;5061052;28;20207;-81
2022/02/07 11:57:58;;;;;;;1.73;1.63;;;3.90;99.90;;;;;;5060293;28;20216;-81
2022/02/07 12:00:30;;;;;;;3.17;1.10;;;3.90;99.90;;;;;;5060368;28;20202;-80
2022/02/07 12:03:01;;;;;;;2.15;1.20;;;3.90;99.90;;;;;;5060634;28;20583;-80
2022/02/07 12:05:31;;;;;;;1.42;1.25;;;3.90;99.90;;;;;;5059695;28;20232;-81
2022/02/07 12:08:04;;;;;;;5.75;1.75;;;3.80;99.90;;;;;;5059890;28;20251;-80
2022/02/07 12:10:39;;;;;;;3.25;1.90;;;3.90;99.90;;;;;;5061580;28;20209;-81
2022/02/07 12:13:31;;;;;;;0.88;0.88;;;3.90;99.90;;;;;;5064473;28;20205;-81
2022/02/07 12:16:03;;;;;;;1.98;1.75;;;3.90;99.90;;;;;;5060096;28;20209;-81
2022/02/07 12:18:30;;;;;;;5.38;2.97;;;3.90;99.90;;;;;;5060151;28;20250;-81
2022/02/07 12:21:17;;;;;;;3.47;1.10;;;3.80;99.90;;;;;;5059439;28;20726;-79
2022/02/07 12:23:44;;;;;;;1.55;1.10;;;3.90;99.90;;;;;;5054148;28;20220;-79
2022/02/07 12:26:16;;;;;;;2.35;1.63;;;4.00;99.90;;;;;;5054802;28;20889;-79
2022/02/07 12:28:48;;;;;;;3.33;1.25;;;4.00;99.90;;;;;;5054517;28;20271;-79
2022/02/07 12:31:20;;;;;;;2.15;1.65;;;4.00;99.90;;;;;;5054300;28;20710;-79
2022/02/07 12:33:54;;;;;;;2.55;1.42;;;4.00;99.90;;;;;;5054093;28;20670;-79
2022/02/07 12:36:22;;;;;;;2.22;1.30;;;4.20;99.90;;;;;;5054437;28;20630;-79
2022/02/07 12:38:51;;;;;;;4.57;1.55;;;4.10;99.90;;;;;;5054354;28;20210;-79
2022/02/07 12:41:19;;;;;;;2.15;1.27;;;4.30;99.90;;;;;;5053906;28;20237;-79
2022/02/07 12:43:51;;;;;;;1.25;0.90;;;4.20;99.90;;;;;;5054355;28;20219;-79
2022/02/07 12:46:20;;;;;;;1.88;1.77;;;4.20;99.90;;;;;;5054331;28;20857;-79
2022/02/07 12:48:55;;;;;;;1.02;0.93;;;4.20;99.90;;;;;;5054804;28;20214;-79
2022/02/07 12:51:23;;;;;;;1.63;1.52;;;4.20;99.90;;;;;;5054240;28;20228;-79
2022/02/07 12:53:52;;;;;;;2.30;1.98;;;4.20;99.90;;;;;;5054337;28;20274;-79
2022/02/07 12:56:19;;;;;;;2.20;2.10;;;4.30;99.90;;;;;;5054644;28;20212;-79
2022/02/07 12:58:48;;;;;;;5.28;1.50;;;4.30;99.90;;;;;;5055070;28;20206;-79
2022/02/07 13:01:25;;;;;;;1.65;1.10;;;4.10;99.90;;;;;;5054923;28;20249;-80
2022/02/07 13:03:54;;;;;;;1.65;1.50;;;4.00;99.90;;;;;;5055064;28;20209;-79
2022/02/07 13:06:26;;;;;;;2.30;1.85;;;4.10;99.90;;;;;;5063231;28;20736;-78
2022/02/07 13:08:55;;;;;;;8.85;1.85;;;4.00;99.90;;;;;;5059387;28;20287;-79
2022/02/07 13:11:25;;;;;;;3.38;2.33;;;4.00;99.90;;;;;;5053415;28;20232;-80
2022/02/07 13:13:54;;;;;;;4.93;1.90;;;4.10;99.90;;;;;;5053985;28;20566;-79
2022/02/07 13:16:21;;;;;;;3.00;1.30;;;4.20;99.90;;;;;;5053466;28;20297;-79
2022/02/07 13:18:47;;;;;;;3.47;2.13;;;4.30;99.90;;;;;;5054111;28;20697;-79
2022/02/07 13:21:17;;;;;;;1.80;1.70;;;4.10;99.90;;;;;;5053540;28;20742;-79
2022/02/07 13:23:46;;;;;;;2.03;1.90;;;4.10;99.90;;;;;;5054310;28;20220;-79
2022/02/07 13:26:13;;;;;;;4.43;3.05;;;4.10;99.90;;;;;;5053296;28;20225;-79
2022/02/07 13:28:42;;;;;;;2.80;1.30;;;4.10;99.90;;;;;;5053752;28;20206;-79
2022/02/07 13:31:12;;;;;;;2.35;1.80;;;4.10;99.90;;;;;;5053491;28;20225;-79
2022/02/07 13:33:49;;;;;;;1.30;1.20;;;4.10;99.90;;;;;;5052822;28;20351;-79
2022/02/07 13:36:26;;;;;;;1.77;1.50;;;4.10;99.90;;;;;;5056289;28;20212;-79
2022/02/07 13:38:53;;;;;;;2.05;1.95;;;4.20;99.90;;;;;;5057452;28;20216;-79
2022/02/07 13:41:21;;;;;;;1.55;0.98;;;4.30;99.90;;;;;;5058310;28;20248;-80
2022/02/07 13:43:48;;;;;;;1.05;0.90;;;4.20;99.90;;;;;;5057568;28;20212;-79
2022/02/07 13:46:17;;;;;;;2.53;1.50;;;4.40;99.90;;;;;;5057958;28;20228;-79
2022/02/07 13:48:46;;;;;;;1.60;1.50;;;4.40;99.90;;;;;;5058094;28;20220;-79
2022/02/07 13:51:14;;;;;;;3.17;2.20;;;4.50;99.90;;;;;;5057788;28;20240;-79
2022/02/07 13:53:40;;;;;;;2.45;1.83;;;4.70;99.90;;;;;;5057833;28;20206;-79
2022/02/07 13:56:07;;;;;;;1.95;1.30;;;4.70;99.90;;;;;;5057738;28;20204;-79
2022/02/07 13:58:35;;;;;;;3.13;2.45;;;4.60;99.90;;;;;;5057327;28;20202;-79
2022/02/07 14:01:04;;;;;;;3.70;1.80;;;4.70;99.90;;;;;;5057439;28;20275;-79
2022/02/07 14:03:42;;;;;;;1.15;1.15;;;4.70;99.90;;;;;;5057545;28;20215;-79
2022/02/07 14:06:16;;;;;;;5.05;1.80;;;4.50;99.90;;;;;;5057503;28;20312;-79
2022/02/07 14:08:49;;;;;;;1.58;1.48;;;4.50;99.90;;;;;;5057151;28;20209;-79
2022/02/07 14:11:18;;;;;;;3.25;2.45;;;4.90;99.90;;;;;;5058036;28;20795;-79
2022/02/07 14:13:45;;;;;;;2.00;1.88;;;5.30;99.90;;;;;;5058311;28;20663;-79
2022/02/07 14:16:14;;;;;;;1.30;1.20;;;4.90;99.90;;;;;;5057986;28;20615;-79
2022/02/07 14:18:45;;;;;;;1.75;1.65;;;4.70;99.90;;;;;;5057561;28;20577;-79
2022/02/07 14:21:12;;;;;;;2.15;1.80;;;4.70;99.90;;;;;;5056453;28;20241;-79
2022/02/07 14:23:43;;;;;;;4.13;1.48;;;4.70;99.90;;;;;;5056114;28;20216;-79
2022/02/07 14:26:14;;;;;;;2.75;2.13;;;4.80;99.90;;;;;;5056760;28;20221;-79
2022/02/07 14:28:41;;;;;;;3.08;1.67;;;4.90;99.90;;;;;;5057463;28;20210;-80
2022/02/07 14:31:10;;;;;;;1.23;0.93;;;5.40;99.90;;;;;;5056817;28;20444;-80
2022/02/07 14:33:37;;;;;;;5.03;1.75;;;5.50;99.90;;;;;;5057579;28;20671;-79
2022/02/07 14:36:06;;;;;;;4.80;2.00;;;5.20;99.90;;;;;;5057385;28;20664;-79
2022/02/07 14:38:33;;;;;;;4.22;1.42;;;5.20;99.90;;;;;;5057552;28;20217;-79
2022/02/07 14:41:00;;;;;;;4.03;1.75;;;5.10;99.90;;;;;;5057349;28;20248;-78
2022/02/07 14:43:29;;;;;;;3.58;1.92;;;5.20;99.90;;;;;;5057024;28;20217;-79
2022/02/07 14:46:07;;;;;;;2.42;1.60;;;5.30;99.90;;;;;;5056699;28;20237;-79
2022/02/07 14:48:35;;;;;;;5.65;2.42;;;5.30;99.90;;;;;;5057304;28;20215;-79
2022/02/07 14:51:06;;;;;;;3.80;1.92;;;5.40;99.90;;;;;;5056804;28;20234;-79
2022/02/07 14:53:34;;;;;;;5.18;2.58;;;5.30;99.90;;;;;;5057166;28;20217;-78
2022/02/07 14:56:00;;;;;;;1.90;1.80;;;5.30;99.90;;;;;;5056083;28;20210;-78
2022/02/07 14:58:28;;;;;;;3.00;1.58;;;5.20;99.90;;;;;;5056666;28;20209;-79
2022/02/07 15:00:54;;;;;;;1.63;1.52;;;5.10;99.90;;;;;;5056039;28;20236;-79
2022/02/07 15:03:22;;;;;;;2.85;1.92;;;4.80;99.90;;;;;;5056813;28;20206;-78
2022/02/07 15:05:53;;;;;;;5.22;1.40;;;4.70;99.90;;;;;;5056363;28;20212;-79
2022/02/07 15:08:21;;;;;;;2.50;1.40;;;4.60;99.90;;;;;;5056278;28;20694;-79
2022/02/07 15:10:49;;;;;;;5.38;2.00;;;4.40;99.90;;;;;;5056821;28;20274;-79
2022/02/07 15:13:16;;;;;;;5.70;1.20;;;4.30;99.90;;;;;;5056609;28;20206;-78
2022/02/07 15:15:43;;;;;;;2.85;2.63;;;4.20;99.90;;;;;;5056447;28;20214;-79
2022/02/07 15:18:09;;;;;;;1.13;0.80;;;4.10;99.90;;;;;;5056815;28;20202;-79
2022/02/07 15:20:39;;;;;;;0.88;0.85;;;4.00;99.90;;;;;;5056393;28;20220;-79
2022/02/07 15:23:06;;;;;;;2.40;1.13;;;3.90;99.90;;;;;;5056290;28;20212;-78
2022/02/07 15:25:35;;;;;;;6.47;1.65;;;3.90;99.90;;;;;;5057184;28;20216;-81